Time;durP1;ratioP1;P1;durP2;ratioP2;P2;SDS_P1;SDS_P2;PMS_P1;PMS_P2;Temp;Humidity;BMP_temperature;BMP_pressure;BME280_temperature;BME280_humidity;BME280_pressure;Samples;Min_cycle;Max_cycle;Signal;HPM_P1;HPM_P2
2022/01/06 00:01:00;;;;;;;10.25;3.35;;;;;;;;;;4768454;29;20042;-78
2022/01/06 00:03:31;;;;;;;11.15;3.33;;;;;;;;;;4760234;29;21435;-78
2022/01/06 00:06:04;;;;;;;12.57;3.88;;;;;;;;;;4736170;29;20071;-78
2022/01/06 00:08:33;;;;;;;10.10;3.78;;;;;;;;;;4728684;29;20082;-81
2022/01/06 00:11:06;;;;;;;12.70;3.60;;;;;;;;;;4739808;29;20043;-79
2022/01/06 00:16:36;;;;;;;11.25;3.88;;;;;;;;;;4763977;29;21346;-78
2022/01/06 00:24:24;;;;;;;9.32;3.20;;;;;;;;;;4752473;29;21556;-79
2022/01/06 00:26:53;;;;;;;12.30;2.92;;;;;;;;;;4750373;29;20174;-79
2022/01/06 00:29:21;;;;;;;12.13;2.95;;;;;;;;;;4737468;29;20048;-78
2022/01/06 00:31:49;;;;;;;11.20;3.03;;;;;;;;;;4730263;29;20032;-78
2022/01/06 00:34:16;;;;;;;11.00;4.10;;;;;;;;;;4723348;29;20052;-78
2022/01/06 00:36:44;;;;;;;14.85;5.22;;;;;;;;;;4735569;29;20032;-78
2022/01/06 00:39:14;;;;;;;12.75;5.03;;;;;;;;;;4752643;29;20048;-79
2022/01/06 00:41:42;;;;;;;14.07;4.88;;;;;;;;;;4749699;29;20123;-79
2022/01/06 00:44:09;;;;;;;16.52;5.97;;;;;;;;;;4738412;29;20044;-79
2022/01/06 00:46:37;;;;;;;16.83;6.82;;;;;;;;;;4705764;29;20414;-79
2022/01/06 00:49:05;;;;;;;19.63;7.47;;;;;;;;;;4723057;29;21185;-79
2022/01/06 00:51:55;;;;;;;19.90;8.43;;;;;;;;;;4741377;29;20159;-80
2022/01/06 00:54:21;;;;;;;26.92;9.55;;;;;;;;;;4720542;29;20179;-78
2022/01/06 00:56:50;;;;;;;21.65;7.50;;;;;;;;;;4708040;29;20807;-79
2022/01/06 00:59:18;;;;;;;16.80;5.70;;;;;;;;;;4716881;29;20049;-77
2022/01/06 01:01:45;;;;;;;15.63;4.90;;;;;;;;;;4729436;29;20074;-78
2022/01/06 01:04:12;;;;;;;15.30;5.10;;;;;;;;;;4731759;29;20048;-80
2022/01/06 01:06:39;;;;;;;12.55;4.53;;;;;;;;;;4733451;29;20048;-80
2022/01/06 01:09:06;;;;;;;16.15;5.55;;;;;;;;;;4724443;29;20048;-78
2022/01/06 01:11:34;;;;;;;;;;;;;;;;;;4707647;29;20181;-80
2022/01/06 01:14:17;;;;;;;;;;;;;;;;;;4699679;29;19923;-77
2022/01/06 01:16:56;;;;;;;23.30;8.80;;;;;;;;;;4717209;29;20087;-78
2022/01/06 01:19:24;;;;;;;19.52;6.53;;;;;;;;;;4713989;29;20078;-80
2022/01/06 01:21:54;;;;;;;18.50;6.32;;;;;;;;;;4729622;29;20040;-79
2022/01/06 01:24:21;;;;;;;17.10;5.50;;;;;;;;;;4730664;29;20028;-79
2022/01/06 01:26:47;;;;;;;;;;;;;;;;;;4730327;29;20206;-79
2022/01/06 01:29:17;;;;;;;14.32;4.30;;;;;;;;;;4714010;29;19923;-78
2022/01/06 01:31:57;;;;;;;11.80;3.65;;;;;;;;;;4729944;29;21489;-78
2022/01/06 01:34:26;;;;;;;10.25;2.97;;;;;;;;;;4741418;29;20191;-78
2022/01/06 01:36:55;;;;;;;9.80;2.90;;;;;;;;;;4736725;29;20746;-80
2022/01/06 01:39:50;;;;;;;9.95;2.45;;;;;;;;;;4720519;29;20718;-79
2022/01/06 01:42:20;;;;;;;9.25;2.75;;;;;;;;;;4733813;29;20132;-78
2022/01/06 01:44:50;;;;;;;8.38;2.30;;;;;;;;;;4733131;29;20051;-78
2022/01/06 01:47:28;;;;;;;8.73;3.00;;;;;;;;;;4722464;29;20039;-78
2022/01/06 01:50:15;;;;;;;;;;;;;;;;;;4725477;29;20052;-78
2022/01/06 01:52:58;;;;;;;9.52;2.38;;;;;;;;;;4723423;29;19963;-78
2022/01/06 01:55:32;;;;;;;10.73;2.90;;;;;;;;;;4703325;29;20048;-80
2022/01/06 01:58:01;;;;;;;9.02;2.67;;;;;;;;;;4702317;29;20135;-77
2022/01/06 02:00:48;;;;;;;6.32;2.10;;;;;;;;;;4716637;29;20135;-77
2022/01/06 02:03:14;;;;;;;8.23;2.17;;;;;;;;;;4685791;29;20052;-78
2022/01/06 02:05:41;;;;;;;8.40;2.35;;;;;;;;;;4702477;29;21448;-77
2022/01/06 02:08:18;;;;;;;11.23;2.75;;;;;;;;;;4722135;29;20746;-78
2022/01/06 02:10:47;;;;;;;8.60;2.60;;;;;;;;;;4719542;29;20024;-77
2022/01/06 02:13:15;;;;;;;9.20;2.75;;;;;;;;;;4723183;29;20044;-78
2022/01/06 02:15:52;;;;;;;;;;;;;;;;;;4715077;29;20079;-78
2022/01/06 02:18:20;;;;;;;9.52;3.17;;;;;;;;;;4704901;29;20672;-78
2022/01/06 02:20:47;;;;;;;9.73;2.90;;;;;;;;;;4703138;29;20163;-77
2022/01/06 02:23:18;;;;;;;11.02;3.70;;;;;;;;;;4701103;29;20052;-78
2022/01/06 02:25:45;;;;;;;9.77;3.42;;;;;;;;;;4723009;29;20047;-77
2022/01/06 02:28:12;;;;;;;8.70;3.00;;;;;;;;;;4718261;29;20032;-80
2022/01/06 02:30:43;;;;;;;9.00;2.80;;;;;;;;;;4723040;29;20020;-77
2022/01/06 02:33:12;;;;;;;9.77;3.45;;;;;;;;;;4722882;29;20071;-81
2022/01/06 02:35:39;;;;;;;9.23;3.47;;;;;;;;;;4726059;29;20044;-79
2022/01/06 02:38:05;;;;;;;8.30;3.00;;;;;;;;;;4730100;29;21126;-77
2022/01/06 02:40:36;;;;;;;9.30;3.00;;;;;;;;;;4728578;29;20025;-77
2022/01/06 02:43:07;;;;;;;9.52;3.08;;;;;;;;;;4729173;29;20170;-79
2022/01/06 02:45:36;;;;;;;11.18;3.20;;;;;;;;;;4726843;29;20043;-80
2022/01/06 02:48:10;;;;;;;9.77;3.50;;;;;;;;;;4719593;29;20055;-77
2022/01/06 02:50:39;;;;;;;9.70;3.25;;;;;;;;;;4731011;29;20051;-79
2022/01/06 02:53:09;;;;;;;12.38;4.25;;;;;;;;;;4723457;29;20032;-79
2022/01/06 02:55:41;;;;;;;10.40;3.88;;;;;;;;;;4713107;29;20712;-81
2022/01/06 02:58:08;;;;;;;10.75;3.38;;;;;;;;;;4737688;29;20044;-78
2022/01/06 03:00:38;;;;;;;9.18;2.90;;;;;;;;;;4717440;29;20843;-81
2022/01/06 03:03:08;;;;;;;11.55;3.00;;;;;;;;;;4738124;29;20082;-78
2022/01/06 03:05:37;;;;;;;9.27;2.67;;;;;;;;;;4737665;29;20051;-77
2022/01/06 03:08:06;;;;;;;6.47;2.10;;;;;;;;;;4714955;29;20058;-80
2022/01/06 03:10:38;;;;;;;8.90;2.13;;;;;;;;;;4723323;29;20035;-77
2022/01/06 03:13:05;;;;;;;7.85;2.08;;;;;;;;;;4699293;29;20036;-79
2022/01/06 03:15:33;;;;;;;7.50;2.15;;;;;;;;;;4722261;29;20080;-79
2022/01/06 03:18:01;;;;;;;7.65;2.15;;;;;;;;;;4722231;29;20059;-79
2022/01/06 03:20:30;;;;;;;8.60;2.15;;;;;;;;;;4715099;29;20040;-78
2022/01/06 03:22:59;;;;;;;7.15;1.92;;;;;;;;;;4718608;29;20048;-77
2022/01/06 03:25:27;;;;;;;7.05;2.00;;;;;;;;;;4717170;29;20028;-79
2022/01/06 03:27:54;;;;;;;8.40;1.98;;;;;;;;;;4721252;29;20044;-79
2022/01/06 03:30:23;;;;;;;7.43;1.90;;;;;;;;;;4713849;29;20040;-79
2022/01/06 03:32:52;;;;;;;6.85;1.85;;;;;;;;;;4731851;29;20056;-80
2022/01/06 03:35:22;;;;;;;6.90;1.80;;;;;;;;;;4736395;29;20110;-76
2022/01/06 03:37:48;;;;;;;9.88;3.30;;;;;;;;;;4736462;29;20148;-77
2022/01/06 03:40:20;;;;;;;11.43;4.00;;;;;;;;;;4721496;29;20051;-77
2022/01/06 03:42:48;;;;;;;8.70;2.97;;;;;;;;;;4721841;29;20036;-77
2022/01/06 03:45:16;;;;;;;8.75;2.72;;;;;;;;;;4706033;29;20064;-77
2022/01/06 03:47:45;;;;;;;9.98;2.72;;;;;;;;;;4722695;29;20277;-81
2022/01/06 03:50:13;;;;;;;9.40;2.78;;;;;;;;;;4737509;29;20046;-77
2022/01/06 03:52:40;;;;;;;9.60;2.70;;;;;;;;;;4739827;29;20051;-77
2022/01/06 03:55:10;;;;;;;10.35;2.83;;;;;;;;;;4744203;29;20422;-80
2022/01/06 03:57:37;;;;;;;8.00;2.28;;;;;;;;;;4721415;29;20373;-77
2022/01/06 04:00:08;;;;;;;9.27;2.60;;;;;;;;;;4743906;29;20749;-77
2022/01/06 04:02:37;;;;;;;9.38;2.53;;;;;;;;;;4734644;29;20095;-79
2022/01/06 04:05:03;;;;;;;9.07;2.72;;;;;;;;;;4742887;29;20114;-79
2022/01/06 04:07:30;;;;;;;;;;;;;;;;;;4744264;29;20051;-79
2022/01/06 04:09:58;;;;;;;8.82;2.45;;;;;;;;;;4739170;29;19919;-79
2022/01/06 04:12:26;;;;;;;9.85;2.40;;;;;;;;;;4726191;29;20158;-79
2022/01/06 04:14:56;;;;;;;9.52;2.60;;;;;;;;;;4726277;29;20039;-79
2022/01/06 04:17:23;;;;;;;7.70;1.98;;;;;;;;;;4724241;29;21985;-78
2022/01/06 04:19:49;;;;;;;7.93;2.20;;;;;;;;;;4748708;29;20032;-77
2022/01/06 04:22:16;;;;;;;9.57;2.72;;;;;;;;;;4737990;29;21258;-77
2022/01/06 04:24:42;;;;;;;;;;;;;;;;;;4741103;29;20531;-77
2022/01/06 04:27:13;;;;;;;9.00;2.30;;;;;;;;;;4741898;29;19985;-78
2022/01/06 04:29:42;;;;;;;9.98;2.80;;;;;;;;;;4726817;29;20036;-77
2022/01/06 04:32:09;;;;;;;8.02;2.30;;;;;;;;;;4744612;29;21128;-78
2022/01/06 04:34:35;;;;;;;8.82;2.05;;;;;;;;;;4726818;29;20714;-77
2022/01/06 04:37:03;;;;;;;8.85;1.98;;;;;;;;;;4741809;29;20031;-78
2022/01/06 04:39:33;;;;;;;10.93;2.35;;;;;;;;;;4738574;29;20166;-78
2022/01/06 04:42:00;;;;;;;10.82;2.60;;;;;;;;;;4727945;29;20070;-77
2022/01/06 04:44:28;;;;;;;10.18;2.05;;;;;;;;;;4739012;28;20146;-78
2022/01/06 04:46:56;;;;;;;9.52;2.13;;;;;;;;;;4737167;29;20091;-77
2022/01/06 04:49:23;;;;;;;7.63;1.83;;;;;;;;;;4739821;29;20090;-76
2022/01/06 04:51:51;;;;;;;7.45;1.88;;;;;;;;;;4741178;29;21547;-77
2022/01/06 04:54:20;;;;;;;9.68;1.98;;;;;;;;;;4741187;29;20086;-77
2022/01/06 04:56:46;;;;;;;10.10;1.85;;;;;;;;;;4740726;29;20419;-79
2022/01/06 04:59:12;;;;;;;9.48;2.20;;;;;;;;;;4734028;29;20838;-77
2022/01/06 05:01:39;;;;;;;9.77;2.20;;;;;;;;;;4744232;29;20036;-77
2022/01/06 05:04:05;;;;;;;;;;;;;;;;;;4741229;29;20549;-77
2022/01/06 05:06:32;;;;;;;8.13;1.80;;;;;;;;;;4739824;29;21333;-77
2022/01/06 05:08:59;;;;;;;6.88;1.40;;;;;;;;;;4741792;28;20183;-77
2022/01/06 05:11:26;;;;;;;10.60;1.98;;;;;;;;;;4726531;29;21046;-80
2022/01/06 05:13:55;;;;;;;8.23;1.70;;;;;;;;;;4740822;29;20059;-79
2022/01/06 05:16:21;;;;;;;8.35;1.70;;;;;;;;;;4741999;29;21709;-77
2022/01/06 05:18:49;;;;;;;9.70;1.60;;;;;;;;;;4745517;29;20682;-77
2022/01/06 05:21:15;;;;;;;6.93;1.50;;;;;;;;;;4730231;29;20036;-78
2022/01/06 05:23:43;;;;;;;9.00;2.35;;;;;;;;;;4737937;29;20048;-77
2022/01/06 05:26:15;;;;;;;8.30;2.03;;;;;;;;;;4741679;29;20043;-77
2022/01/06 05:28:42;;;;;;;9.43;2.17;;;;;;;;;;4740603;29;20082;-78
2022/01/06 05:31:10;;;;;;;8.27;1.85;;;;;;;;;;4739936;29;20054;-79
2022/01/06 05:33:36;;;;;;;7.57;2.08;;;;;;;;;;4744297;29;20150;-78
2022/01/06 05:36:05;;;;;;;7.15;2.00;;;;;;;;;;4737993;29;20086;-79
2022/01/06 05:38:32;;;;;;;7.90;2.20;;;;;;;;;;4739847;29;20122;-78
2022/01/06 05:40:58;;;;;;;9.43;2.30;;;;;;;;;;4728734;29;20742;-77
2022/01/06 05:43:27;;;;;;;8.50;1.80;;;;;;;;;;4741384;29;21949;-78
2022/01/06 05:45:57;;;;;;;10.93;2.00;;;;;;;;;;4740575;29;20094;-77
2022/01/06 05:48:25;;;;;;;10.32;2.00;;;;;;;;;;4733740;29;20197;-79
2022/01/06 05:50:51;;;;;;;8.73;1.98;;;;;;;;;;4724915;29;20534;-76
2022/01/06 05:53:19;;;;;;;7.28;1.92;;;;;;;;;;4731368;29;20028;-77
2022/01/06 05:55:47;;;;;;;9.07;1.88;;;;;;;;;;4714670;29;20129;-77
2022/01/06 05:58:24;;;;;;;10.93;2.50;;;;;;;;;;4741989;29;20048;-81
2022/01/06 06:00:55;;;;;;;7.80;2.10;;;;;;;;;;4738680;29;20065;-79
2022/01/06 06:03:27;;;;;;;9.63;2.70;;;;;;;;;;4742223;29;21606;-77
2022/01/06 06:05:55;;;;;;;8.63;2.60;;;;;;;;;;4743509;29;20320;-77
2022/01/06 06:08:22;;;;;;;10.00;2.95;;;;;;;;;;4739965;29;20039;-77
2022/01/06 06:10:51;;;;;;;13.02;2.67;;;;;;;;;;4739127;29;20031;-77
2022/01/06 06:13:19;;;;;;;10.35;2.75;;;;;;;;;;4734462;29;20032;-77
2022/01/06 06:15:47;;;;;;;10.25;3.25;;;;;;;;;;4741356;29;20028;-80
2022/01/06 06:18:20;;;;;;;11.38;3.95;;;;;;;;;;4738485;29;20058;-77
2022/01/06 06:20:50;;;;;;;11.40;3.47;;;;;;;;;;4738789;29;21698;-78
2022/01/06 06:23:18;;;;;;;9.45;3.28;;;;;;;;;;4738304;29;20036;-78
2022/01/06 06:25:46;;;;;;;10.07;2.63;;;;;;;;;;4716852;29;20035;-79
2022/01/06 06:28:15;;;;;;;8.93;2.40;;;;;;;;;;4726699;29;20194;-79
2022/01/06 06:30:46;;;;;;;8.68;2.47;;;;;;;;;;4710879;29;20060;-77
2022/01/06 06:33:13;;;;;;;9.27;2.45;;;;;;;;;;4730934;29;20047;-77
2022/01/06 06:35:42;;;;;;;8.48;2.20;;;;;;;;;;4722322;29;20052;-77
2022/01/06 06:38:10;;;;;;;9.60;2.17;;;;;;;;;;4718469;29;20047;-78
2022/01/06 06:40:37;;;;;;;10.18;2.17;;;;;;;;;;4723545;29;20170;-80
2022/01/06 06:43:11;;;;;;;8.20;2.00;;;;;;;;;;4723984;29;20040;-79
2022/01/06 06:45:38;;;;;;;7.72;2.25;;;;;;;;;;4738992;29;20027;-79
2022/01/06 06:48:05;;;;;;;8.45;2.35;;;;;;;;;;4740404;29;20765;-78
2022/01/06 06:50:32;;;;;;;12.45;2.78;;;;;;;;;;4736183;29;20094;-78
2022/01/06 06:53:03;;;;;;;11.13;2.50;;;;;;;;;;4740563;29;20044;-78
2022/01/06 06:55:33;;;;;;;9.07;2.22;;;;;;;;;;4739535;29;20337;-78
2022/01/06 06:58:01;;;;;;;12.63;2.30;;;;;;;;;;4738248;29;20110;-77
2022/01/06 07:00:29;;;;;;;9.55;2.10;;;;;;;;;;4740246;29;21222;-78
2022/01/06 07:02:56;;;;;;;8.70;1.98;;;;;;;;;;4717832;29;20047;-78
2022/01/06 07:05:24;;;;;;;13.00;2.47;;;;;;;;;;4740432;29;20740;-78
2022/01/06 07:07:52;;;;;;;13.30;4.05;;;;;;;;;;4742403;29;20071;-77
2022/01/06 07:10:20;;;;;;;14.75;5.57;;;;;;;;;;4743941;29;20821;-78
2022/01/06 07:12:46;;;;;;;17.83;7.43;;;;;;;;;;4740866;29;20753;-78
2022/01/06 07:15:15;;;;;;;22.13;9.48;;;;;;;;;;4722609;29;20050;-78
2022/01/06 07:17:42;;;;;;;17.08;7.68;;;;;;;;;;4740240;29;21617;-78
2022/01/06 07:20:09;;;;;;;17.25;6.18;;;;;;;;;;4740615;29;20188;-78
2022/01/06 07:22:37;;;;;;;14.93;4.55;;;;;;;;;;4725584;29;20032;-78
2022/01/06 07:25:12;;;;;;;14.43;4.15;;;;;;;;;;4741980;29;20051;-78
2022/01/06 07:27:43;;;;;;;10.80;3.83;;;;;;;;;;4739697;29;20051;-78
2022/01/06 07:30:12;;;;;;;12.77;3.80;;;;;;;;;;4738890;29;20032;-79
2022/01/06 07:32:48;;;;;;;12.50;3.58;;;;;;;;;;4722540;29;20321;-78
2022/01/06 07:35:18;;;;;;;11.68;3.60;;;;;;;;;;4743066;29;22644;-78
2022/01/06 07:37:47;;;;;;;11.63;3.00;;;;;;;;;;4742695;29;20048;-78
2022/01/06 07:40:13;;;;;;;10.85;3.30;;;;;;;;;;4723322;29;20043;-79
2022/01/06 07:42:45;;;;;;;10.35;2.60;;;;;;;;;;4727070;29;20027;-78
2022/01/06 07:45:12;;;;;;;14.75;3.00;;;;;;;;;;4742831;29;21305;-78
2022/01/06 07:47:55;;;;;;;13.23;3.00;;;;;;;;;;4747395;29;20031;-78
2022/01/06 07:50:23;;;;;;;14.90;3.83;;;;;;;;;;4754755;29;21633;-79
2022/01/06 07:52:49;;;;;;;13.23;3.55;;;;;;;;;;4731513;29;20039;-79
2022/01/06 07:55:17;;;;;;;12.30;3.17;;;;;;;;;;4746064;29;20032;-78
2022/01/06 07:57:43;;;;;;;13.30;3.40;;;;;;;;;;4728459;29;21331;-77
2022/01/06 08:00:12;;;;;;;12.27;3.47;;;;;;;;;;4744578;29;20067;-78
2022/01/06 08:02:38;;;;;;;13.55;3.25;;;;;;;;;;4727137;29;21558;-77
2022/01/06 08:05:09;;;;;;;11.90;3.83;;;;;;;;;;4725192;29;20047;-79
2022/01/06 08:07:36;;;;;;;13.93;4.55;;;;;;;;;;4739879;29;20711;-78
2022/01/06 08:10:04;;;;;;;13.30;4.50;;;;;;;;;;4742967;29;21995;-78
2022/01/06 08:12:33;;;;;;;12.48;4.28;;;;;;;;;;4745388;29;20038;-78
2022/01/06 08:15:02;;;;;;;14.00;3.58;;;;;;;;;;4744094;29;20639;-77
2022/01/06 08:17:32;;;;;;;13.27;3.40;;;;;;;;;;4714807;29;22293;-80
2022/01/06 08:20:00;;;;;;;10.93;3.47;;;;;;;;;;4723703;29;20028;-80
2022/01/06 08:22:29;;;;;;;10.75;3.47;;;;;;;;;;4741486;29;21546;-80
2022/01/06 08:24:59;;;;;;;11.98;3.75;;;;;;;;;;4747181;29;20422;-80
2022/01/06 08:27:27;;;;;;;11.48;4.03;;;;;;;;;;4742143;29;20048;-77
2022/01/06 08:29:57;;;;;;;10.38;4.22;;;;;;;;;;4745676;29;20032;-77
2022/01/06 08:32:26;;;;;;;9.68;3.25;;;;;;;;;;4741919;29;20758;-77
2022/01/06 08:34:53;;;;;;;11.95;2.78;;;;;;;;;;4723384;29;20866;-78
2022/01/06 08:37:26;;;;;;;11.55;3.25;;;;;;;;;;4741231;29;20098;-77
2022/01/06 08:39:52;;;;;;;10.75;3.45;;;;;;;;;;4742365;29;20180;-77
2022/01/06 08:42:22;;;;;;;14.75;4.57;;;;;;;;;;4742855;29;20442;-79
2022/01/06 08:44:51;;;;;;;14.68;5.28;;;;;;;;;;4743650;29;20142;-79
2022/01/06 08:47:17;;;;;;;13.35;5.00;;;;;;;;;;4736873;29;20762;-78
2022/01/06 08:49:43;;;;;;;;;;;;;;;;;;4717096;29;20706;-78
2022/01/06 08:52:10;;;;;;;11.88;4.57;;;;;;;;;;4752961;29;21465;-78
2022/01/06 08:54:41;;;;;;;15.43;5.35;;;;;;;;;;4749852;29;20032;-78
2022/01/06 08:57:10;;;;;;;13.55;4.78;;;;;;;;;;4760890;29;20146;-79
2022/01/06 08:59:57;;;;;;;11.65;4.40;;;;;;;;;;4752033;29;20080;-78
2022/01/06 09:02:24;;;;;;;12.23;5.45;;;;;;;;;;4749213;28;20039;-78
2022/01/06 09:04:55;;;;;;;11.25;4.47;;;;;;;;;;4749089;29;20130;-78
2022/01/06 09:07:25;;;;;;;13.32;4.40;;;;;;;;;;4750308;29;20044;-78
2022/01/06 09:09:52;;;;;;;13.60;4.38;;;;;;;;;;4735640;29;20043;-78
2022/01/06 09:12:22;;;;;;;11.23;3.72;;;;;;;;;;4714391;29;20249;-81
2022/01/06 09:14:51;;;;;;;12.18;3.72;;;;;;;;;;4752711;29;20031;-79
2022/01/06 09:17:26;;;;;;;10.77;3.33;;;;;;;;;;4757359;29;20039;-79
2022/01/06 09:19:56;;;;;;;11.70;3.33;;;;;;;;;;4739514;29;20049;-81
2022/01/06 09:22:22;;;;;;;10.90;3.10;;;;;;;;;;4729008;29;21934;-78
2022/01/06 09:24:51;;;;;;;15.45;4.18;;;;;;;;;;4751517;29;20035;-78
2022/01/06 09:27:17;;;;;;;12.88;5.10;;;;;;;;;;4743093;29;22324;-79
2022/01/06 09:29:43;;;;;;;;;;;;;;;;;;4728172;29;20096;-78
2022/01/06 09:32:12;;;;;;;14.40;4.38;;;;;;;;;;4732234;29;19919;-78
2022/01/06 09:34:40;;;;;;;14.55;4.15;;;;;;;;;;4736636;29;20223;-77
2022/01/06 09:37:11;;;;;;;12.43;4.68;;;;;;;;;;4760218;29;20040;-78
2022/01/06 09:39:40;;;;;;;12.45;4.30;;;;;;;;;;4746326;29;20040;-78
2022/01/06 09:42:09;;;;;;;10.98;4.22;;;;;;;;;;4735614;29;20032;-79
2022/01/06 09:44:37;;;;;;;10.43;3.80;;;;;;;;;;4714808;29;20695;-79
2022/01/06 09:47:05;;;;;;;11.07;3.28;;;;;;;;;;4705448;29;20040;-78
2022/01/06 09:49:32;;;;;;;11.75;3.20;;;;;;;;;;4710785;29;20160;-79
2022/01/06 09:52:00;;;;;;;10.00;2.75;;;;;;;;;;4701618;29;20100;-79
2022/01/06 09:54:34;;;;;;;12.77;4.05;;;;;;;;;;4707047;29;20040;-81
2022/01/06 09:57:03;;;;;;;13.05;4.20;;;;;;;;;;4722203;29;20453;-79
2022/01/06 09:59:32;;;;;;;12.25;3.40;;;;;;;;;;4725827;29;20056;-79
2022/01/06 10:01:59;;;;;;;11.77;3.20;;;;;;;;;;4726382;29;20036;-79
2022/01/06 10:04:28;;;;;;;11.27;3.40;;;;;;;;;;4709636;29;20122;-79
2022/01/06 10:07:01;;;;;;;10.43;3.30;;;;;;;;;;4737159;29;20068;-78
2022/01/06 10:09:27;;;;;;;11.57;3.80;;;;;;;;;;4744253;29;21043;-80
2022/01/06 10:11:57;;;;;;;10.75;3.15;;;;;;;;;;4740741;29;20076;-80
2022/01/06 10:14:32;;;;;;;12.73;3.63;;;;;;;;;;4722896;29;20727;-79
2022/01/06 10:17:04;;;;;;;10.68;3.53;;;;;;;;;;4701623;29;20072;-79
2022/01/06 10:19:32;;;;;;;12.88;3.60;;;;;;;;;;4708371;29;20063;-79
2022/01/06 10:21:59;;;;;;;11.48;3.72;;;;;;;;;;4712666;29;20036;-79
2022/01/06 10:24:29;;;;;;;13.13;3.60;;;;;;;;;;4704255;29;20058;-79
2022/01/06 10:26:59;;;;;;;10.98;3.42;;;;;;;;;;4700092;29;20687;-79
2022/01/06 10:29:29;;;;;;;8.25;2.28;;;;;;;;;;4717621;29;21483;-79
2022/01/06 10:32:04;;;;;;;10.38;2.70;;;;;;;;;;4737981;29;21456;-78
2022/01/06 10:34:35;;;;;;;10.27;2.83;;;;;;;;;;4744587;29;20040;-79
2022/01/06 10:37:30;;;;;;;9.27;2.80;;;;;;;;;;4729738;29;20341;-79
2022/01/06 10:40:02;;;;;;;8.63;2.55;;;;;;;;;;4732003;29;20050;-78
2022/01/06 10:42:43;;;;;;;8.93;2.60;;;;;;;;;;4729096;29;20839;-78
2022/01/06 10:45:14;;;;;;;9.65;2.53;;;;;;;;;;4738245;29;20090;-79
2022/01/06 10:47:43;;;;;;;9.93;3.35;;;;;;;;;;4738124;29;20830;-79
2022/01/06 10:50:36;;;;;;;10.02;2.97;;;;;;;;;;4727182;29;20691;-78
2022/01/06 10:53:10;;;;;;;11.13;3.95;;;;;;;;;;4731922;29;20171;-81
2022/01/06 10:55:43;;;;;;;10.45;3.78;;;;;;;;;;4739600;29;20350;-80
2022/01/06 10:58:24;;;;;;;12.18;3.70;;;;;;;;;;4738766;29;22190;-81
2022/01/06 11:01:05;;;;;;;12.35;4.13;;;;;;;;;;4740007;29;20025;-80
2022/01/06 11:03:36;;;;;;;11.20;3.13;;;;;;;;;;4739434;29;20614;-82
2022/01/06 11:06:06;;;;;;;10.23;2.80;;;;;;;;;;4724662;29;21574;-82
2022/01/06 11:08:37;;;;;;;10.50;2.13;;;;;;;;;;4745645;29;20162;-82
2022/01/06 11:13:57;;;;;;;9.32;2.35;;;;;;;;;;4738513;29;20032;-81
2022/01/06 11:16:27;;;;;;;9.63;2.58;;;;;;;;;;4737361;29;20044;-80
2022/01/06 11:18:56;;;;;;;9.68;2.92;;;;;;;;;;4743209;29;20075;-81
2022/01/06 11:21:40;;;;;;;8.30;2.30;;;;;;;;;;4730260;29;21036;-79
2022/01/06 11:24:12;;;;;;;10.75;2.47;;;;;;;;;;4758574;29;20309;-79
2022/01/06 11:26:40;;;;;;;8.32;2.08;;;;;;;;;;4757875;29;20048;-79
2022/01/06 11:29:08;;;;;;;8.27;2.17;;;;;;;;;;4753017;29;20326;-79
2022/01/06 11:31:38;;;;;;;9.15;2.47;;;;;;;;;;4761730;29;20036;-81
2022/01/06 11:34:14;;;;;;;9.73;2.47;;;;;;;;;;4746171;29;20138;-79
2022/01/06 11:36:41;;;;;;;9.70;2.30;;;;;;;;;;4749362;29;20135;-81
2022/01/06 11:39:25;;;;;;;10.10;2.40;;;;;;;;;;4754862;29;20174;-81
2022/01/06 11:41:56;;;;;;;9.27;2.95;;;;;;;;;;4742185;29;22133;-81
2022/01/06 11:44:25;;;;;;;11.73;3.97;;;;;;;;;;4737505;29;20070;-81
2022/01/06 11:46:57;;;;;;;11.40;3.42;;;;;;;;;;4735024;29;20032;-81
2022/01/06 11:49:34;;;;;;;11.18;3.10;;;;;;;;;;4732324;29;20166;-81
2022/01/06 11:52:14;;;;;;;8.73;2.85;;;;;;;;;;4737175;29;20051;-82
2022/01/06 11:54:57;;;;;;;10.13;3.20;;;;;;;;;;4733591;29;20166;-81
2022/01/06 11:57:41;;;;;;;9.82;2.90;;;;;;;;;;4729679;29;20895;-80
2022/01/06 12:00:20;;;;;;;8.65;2.70;;;;;;;;;;4750863;29;20075;-80
2022/01/06 12:03:05;;;;;;;9.43;2.78;;;;;;;;;;4745979;29;20044;-81
2022/01/06 12:05:48;;;;;;;9.20;2.65;;;;;;;;;;4761724;29;20036;-79
2022/01/06 12:08:16;;;;;;;11.45;3.38;;;;;;;;;;4762248;29;20044;-81
2022/01/06 12:10:47;;;;;;;10.23;3.28;;;;;;;;;;4757020;29;20829;-82
2022/01/06 12:13:14;;;;;;;11.65;3.50;;;;;;;;;;4783872;29;20198;-81
2022/01/06 12:15:51;;;;;;;10.40;2.95;;;;;;;;;;4773766;29;20778;-81
2022/01/06 12:18:24;;;;;;;9.13;2.55;;;;;;;;;;4768442;29;20074;-81
2022/01/06 12:20:53;;;;;;;10.45;3.70;;;;;;;;;;4770783;29;20055;-81
2022/01/06 12:23:23;;;;;;;9.77;3.40;;;;;;;;;;4772195;29;21359;-80
2022/01/06 12:26:04;;;;;;;9.68;2.90;;;;;;;;;;4769840;29;20131;-80
2022/01/06 12:28:33;;;;;;;9.10;2.40;;;;;;;;;;4783224;29;20047;-80
2022/01/06 12:31:08;;;;;;;11.25;3.00;;;;;;;;;;4769540;29;20044;-79
2022/01/06 12:33:46;;;;;;;10.75;2.83;;;;;;;;;;4768410;29;20035;-82
2022/01/06 12:36:17;;;;;;;10.13;3.30;;;;;;;;;;4773348;29;20036;-82
2022/01/06 12:38:45;;;;;;;10.18;2.95;;;;;;;;;;4763589;29;20044;-82
2022/01/06 12:41:12;;;;;;;12.25;3.42;;;;;;;;;;4762978;29;20083;-81
2022/01/06 12:43:42;;;;;;;10.25;3.13;;;;;;;;;;4755713;29;22651;-79
2022/01/06 12:46:11;;;;;;;11.05;2.60;;;;;;;;;;4744748;29;20121;-81
2022/01/06 12:48:43;;;;;;;10.32;2.80;;;;;;;;;;4736865;29;20349;-79
2022/01/06 12:51:13;;;;;;;9.82;2.67;;;;;;;;;;4745972;29;20024;-79
2022/01/06 12:53:44;;;;;;;10.55;2.55;;;;;;;;;;4750713;29;20036;-78
2022/01/06 12:56:29;;;;;;;9.48;2.60;;;;;;;;;;4752720;29;20043;-77
2022/01/06 12:58:56;;;;;;;9.68;2.72;;;;;;;;;;4737797;29;20047;-79
2022/01/06 13:01:30;;;;;;;9.80;3.30;;;;;;;;;;4761414;29;20024;-80
2022/01/06 13:04:00;;;;;;;11.32;3.80;;;;;;;;;;4779063;29;20032;-81
2022/01/06 13:06:31;;;;;;;14.10;4.30;;;;;;;;;;4767395;29;20044;-81
2022/01/06 13:09:00;;;;;;;11.10;3.88;;;;;;;;;;4770985;29;20040;-80
2022/01/06 13:11:30;;;;;;;11.07;3.47;;;;;;;;;;4770181;29;20545;-80
2022/01/06 13:13:59;;;;;;;12.27;3.88;;;;;;;;;;4773086;29;20027;-79
2022/01/06 13:16:32;;;;;;;11.40;3.60;;;;;;;;;;4775688;29;20187;-80
2022/01/06 13:19:13;;;;;;;10.88;3.55;;;;;;;;;;4754717;29;20543;-78
2022/01/06 13:21:51;;;;;;;9.85;3.58;;;;;;;;;;4766131;29;20303;-78
2022/01/06 13:24:26;;;;;;;9.02;3.03;;;;;;;;;;4756700;29;20146;-78
2022/01/06 13:27:12;;;;;;;8.35;2.60;;;;;;;;;;4757750;29;20024;-79
2022/01/06 13:29:42;;;;;;;8.50;2.50;;;;;;;;;;4770707;28;22303;-79
2022/01/06 13:32:25;;;;;;;9.45;2.40;;;;;;;;;;4759254;29;20127;-78
2022/01/06 13:35:08;;;;;;;9.48;2.35;;;;;;;;;;4760920;29;21134;-78
2022/01/06 13:37:39;;;;;;;8.68;2.50;;;;;;;;;;4753910;29;20057;-77
2022/01/06 13:40:11;;;;;;;11.25;2.90;;;;;;;;;;4767219;29;21778;-79
2022/01/06 13:42:39;;;;;;;11.73;4.35;;;;;;;;;;4783242;29;20039;-77
2022/01/06 13:53:26;;;;;;;11.15;4.88;;;;;;;;;;4783674;29;22524;-78
2022/01/06 13:56:07;;;;;;;11.23;4.90;;;;;;;;;;4770333;29;20028;-78
2022/01/06 13:58:37;;;;;;;14.45;5.47;;;;;;;;;;4791563;29;20137;-77
2022/01/06 14:01:05;;;;;;;12.10;4.78;;;;;;;;;;4791901;29;20036;-79
2022/01/06 14:03:38;;;;;;;9.85;4.20;;;;;;;;;;4765329;29;21317;-78
2022/01/06 14:06:05;;;;;;;11.70;4.80;;;;;;;;;;4769848;29;20032;-78
2022/01/06 14:08:33;;;;;;;11.30;5.35;;;;;;;;;;4767237;29;21062;-79
2022/01/06 14:11:01;;;;;;;12.55;5.50;;;;;;;;;;4771874;29;20035;-79
2022/01/06 14:13:30;;;;;;;11.88;4.53;;;;;;;;;;4795319;29;20031;-79
2022/01/06 14:15:57;;;;;;;8.52;2.80;;;;;;;;;;4797439;29;20393;-79
2022/01/06 14:18:27;;;;;;;8.50;2.20;;;;;;;;;;4788035;29;20102;-81
2022/01/06 14:20:54;;;;;;;8.30;2.60;;;;;;;;;;4777365;29;20059;-80
2022/01/06 14:23:25;;;;;;;8.23;2.45;;;;;;;;;;4785163;29;20030;-80
2022/01/06 14:25:53;;;;;;;12.98;7.20;;;;;;;;;;4758263;29;20046;-82
2022/01/06 14:28:21;;;;;;;14.30;7.25;;;;;;;;;;4758416;29;20089;-82
2022/01/06 14:30:52;;;;;;;14.98;8.98;;;;;;;;;;4768463;29;20115;-81
2022/01/06 14:33:20;;;;;;;16.92;10.40;;;;;;;;;;4764990;29;21954;-81
2022/01/06 14:35:48;;;;;;;14.27;8.55;;;;;;;;;;4737216;29;21082;-81
2022/01/06 14:38:14;;;;;;;13.52;7.05;;;;;;;;;;4718039;29;20108;-80
2022/01/06 14:40:44;;;;;;;16.05;8.68;;;;;;;;;;4730281;29;20044;-80
2022/01/06 14:43:16;;;;;;;12.35;6.93;;;;;;;;;;4750709;29;20046;-80
2022/01/06 14:45:45;;;;;;;12.15;6.20;;;;;;;;;;4750492;29;20036;-79
2022/01/06 14:48:16;;;;;;;12.88;6.90;;;;;;;;;;4737284;29;20060;-80
2022/01/06 14:50:47;;;;;;;14.35;8.60;;;;;;;;;;4745415;29;20036;-80
2022/01/06 14:53:16;;;;;;;15.10;7.45;;;;;;;;;;4749549;29;20104;-80
2022/01/06 14:55:44;;;;;;;12.18;5.88;;;;;;;;;;4738222;29;20052;-80
2022/01/06 14:58:16;;;;;;;11.77;5.25;;;;;;;;;;4752292;29;20044;-80
2022/01/06 15:00:45;;;;;;;9.63;4.28;;;;;;;;;;4738867;29;20044;-80
2022/01/06 15:03:13;;;;;;;9.05;3.92;;;;;;;;;;4747843;29;20068;-80
2022/01/06 15:05:42;;;;;;;9.05;3.45;;;;;;;;;;4724616;29;22155;-80
2022/01/06 15:08:09;;;;;;;8.98;2.90;;;;;;;;;;4713120;29;20049;-80
2022/01/06 15:10:37;;;;;;;9.18;4.07;;;;;;;;;;4703581;29;20057;-82
2022/01/06 15:13:03;;;;;;;9.18;3.67;;;;;;;;;;4758632;29;20051;-81
2022/01/06 15:15:31;;;;;;;7.82;2.72;;;;;;;;;;4767372;29;20230;-80